Time;durP1;ratioP1;P1;durP2;ratioP2;P2;SDS_P1;SDS_P2;PMS_P1;PMS_P2;Temp;Humidity;BMP_temperature;BMP_pressure;BME280_temperature;BME280_humidity;BME280_pressure;Samples;Min_cycle;Max_cycle;Signal;HPM_P1;HPM_P2
2022/11/08 00:16:24;;;;;;;5.90;2.05;;;;;;;;;;5037833;28;20032;-79
2022/11/08 00:19:17;;;;;;;6.18;1.63;;;;;;;;;;5029114;28;20128;-79
2022/11/08 00:22:03;;;;;;;8.57;1.92;;;;;;;;;;5020494;28;20124;-79
2022/11/08 00:24:58;;;;;;;8.65;2.40;;;;;;;;;;5035150;28;20037;-79
2022/11/08 00:27:52;;;;;;;4.97;1.60;;;;;;;;;;5022404;28;20056;-79
2022/11/08 00:30:40;;;;;;;;;;;;;;;;;;;;;
2022/11/08 00:55:31;;;;;;;;;;;;;;;;;;;;;
2022/11/08 01:04:08;;;;;;;6.90;1.75;;;;;;;;;;5168267;22;20137;-78
2022/11/08 01:07:08;;;;;;;;;;;;;;;;;;;;;
2022/11/08 01:15:58;;;;;;;5.63;2.10;;;;;;;;;;5087381;22;20044;-79
2022/11/08 01:21:47;;;;;;;3.50;1.45;;;;;;;;;;5044843;28;20054;-81
2022/11/08 01:24:22;;;;;;;6.45;2.58;;;;;;;;;;5084313;28;20120;-83
2022/11/08 01:36:53;;;;;;;;;;;;;;;;;;;;;
2022/11/08 01:48:48;;;;;;;;;;;;;;;;;;;;;
2022/11/08 01:51:31;;;;;;;11.98;4.45;;;;;;;;;;5027276;28;20024;-79
2022/11/08 01:58:01;;;;;;;;;;;;;;;;;;;;;
2022/11/08 02:00:39;;;;;;;7.68;3.50;;;;;;;;;;4968950;28;20056;-79
2022/11/08 02:06:23;;;;;;;7.78;3.50;;;;;;;;;;4952507;28;20572;-79
2022/11/08 02:12:13;;;;;;;9.40;4.15;;;;;;;;;;5050414;22;20051;-78
2022/11/08 02:14:48;;;;;;;8.77;4.20;;;;;;;;;;5087742;28;20044;-78
2022/11/08 02:17:33;;;;;;;8.95;4.70;;;;;;;;;;5078976;28;20016;-79
2022/11/08 02:20:27;;;;;;;18.35;5.40;;;;;;;;;;5081145;28;20036;-80
2022/11/08 02:23:24;;;;;;;12.20;4.75;;;;;;;;;;5067058;28;20039;-78
2022/11/08 02:26:38;;;;;;;8.50;4.47;;;;;;;;;;5074403;28;20035;-79
2022/11/08 02:29:37;;;;;;;8.40;4.38;;;;;;;;;;4960759;28;20026;-79
2022/11/08 02:33:11;;;;;;;9.52;4.93;;;;;;;;;;4956522;28;20037;-80
2022/11/08 02:35:36;;;;;;;10.48;4.80;;;;;;;;;;4959189;28;20031;-79
2022/11/08 02:38:31;;;;;;;;;;;;;;;;;;;;;
2022/11/08 02:41:17;;;;;;;13.02;5.70;;;;;;;;;;5060543;28;20517;-77
2022/11/08 02:44:02;;;;;;;11.00;4.50;;;;;;;;;;5067891;28;20032;-78
2022/11/08 02:46:37;;;;;;;12.43;5.65;;;;;;;;;;5054957;28;20028;-77
2022/11/08 02:49:19;;;;;;;12.10;5.50;;;;;;;;;;5061213;28;20016;-78
2022/11/08 02:52:26;;;;;;;9.73;4.97;;;;;;;;;;5088027;22;20064;-78
2022/11/08 02:55:33;;;;;;;10.30;5.13;;;;;;;;;;5076594;28;20024;-80
2022/11/08 03:17:19;;;;;;;8.85;4.93;;;;;;;;;;4956860;28;20066;-80
2022/11/08 04:40:41;;;;;;;21.42;9.02;;;;;;;;;;5015670;28;20038;-80
2022/11/08 04:43:39;;;;;;;19.23;9.25;;;;;;;;;;4970931;28;20370;-79
2022/11/08 04:49:58;;;;;;;16.08;9.50;;;;;;;;;;4919552;29;20036;-79
2022/11/08 06:39:18;;;;;;;;;;;;;;;;;;;;;
2022/11/08 06:44:35;;;;;;;21.33;10.68;;;;;;;;;;3072049;26;20041;-78
2022/11/08 06:48:06;;;;;;;19.50;10.25;;;;;;;;;;5036555;28;20092;-77
2022/11/08 06:53:53;;;;;;;17.25;10.07;;;;;;;;;;4965996;29;20190;-78
2022/11/08 06:59:40;;;;;;;;;;;;;;;;;;;;;
2022/11/08 07:02:43;;;;;;;13.30;8.82;;;;;;;;;;5181201;23;20433;-79
2022/11/08 08:04:59;;;;;;;16.85;7.53;;;;;;;;;;3275441;26;20106;-73
2022/11/08 08:07:25;;;;;;;13.52;8.35;;;;;;;;;;5051852;28;20025;-78
2022/11/08 08:09:59;;;;;;;14.50;7.97;;;;;;;;;;5052091;28;20519;-77
2022/11/08 08:12:32;;;;;;;13.63;8.60;;;;;;;;;;5051182;28;20049;-77
2022/11/08 08:15:02;;;;;;;14.18;7.90;;;;;;;;;;5038692;28;20405;-78
2022/11/08 08:17:28;;;;;;;14.40;8.85;;;;;;;;;;5058861;28;20032;-77
2022/11/08 08:20:00;;;;;;;10.80;7.93;;;;;;;;;;5035951;28;20029;-78
2022/11/08 08:22:28;;;;;;;13.30;7.75;;;;;;;;;;5051989;28;20443;-76
2022/11/08 08:24:54;;;;;;;11.35;7.97;;;;;;;;;;5040407;28;20028;-76
2022/11/08 08:27:23;;;;;;;14.70;8.43;;;;;;;;;;5058619;28;20025;-78
2022/11/08 08:29:54;;;;;;;15.02;7.97;;;;;;;;;;5036901;28;20025;-78
2022/11/08 08:32:33;;;;;;;14.40;8.18;;;;;;;;;;5052821;28;20036;-78
2022/11/08 08:35:11;;;;;;;13.27;8.75;;;;;;;;;;5036730;28;20029;-77
2022/11/08 08:37:42;;;;;;;14.13;8.30;;;;;;;;;;5031146;28;20475;-77
2022/11/08 08:40:13;;;;;;;14.90;8.18;;;;;;;;;;5021210;28;20025;-76
2022/11/08 08:46:10;;;;;;;13.07;7.70;;;;;;;;;;5047120;28;20029;-78
2022/11/08 08:48:38;;;;;;;15.30;8.77;;;;;;;;;;4954043;28;20031;-77
2022/11/08 08:51:10;;;;;;;18.20;8.77;;;;;;;;;;5039955;28;20037;-80
2022/11/08 08:53:36;;;;;;;15.27;8.25;;;;;;;;;;5033768;28;20040;-78
2022/11/08 08:56:06;;;;;;;15.55;8.13;;;;;;;;;;5034497;28;20486;-78
2022/11/08 08:58:34;;;;;;;12.88;7.80;;;;;;;;;;5054700;28;20078;-78
2022/11/08 09:01:04;;;;;;;15.45;8.40;;;;;;;;;;5057428;28;20059;-77
2022/11/08 09:03:30;;;;;;;12.82;8.10;;;;;;;;;;5037002;28;20486;-75
2022/11/08 09:05:57;;;;;;;11.95;7.93;;;;;;;;;;5038122;28;20401;-77
2022/11/08 09:08:23;;;;;;;13.48;7.80;;;;;;;;;;5036592;28;20479;-76
2022/11/08 09:10:53;;;;;;;12.13;6.95;;;;;;;;;;5034513;28;20487;-78
2022/11/08 09:13:19;;;;;;;12.75;8.75;;;;;;;;;;5034269;28;20695;-78
2022/11/08 09:15:45;;;;;;;16.25;7.72;;;;;;;;;;5033703;28;20017;-78
2022/11/08 09:18:11;;;;;;;12.90;7.70;;;;;;;;;;5033237;28;20141;-76
2022/11/08 09:20:38;;;;;;;10.23;6.85;;;;;;;;;;5051545;28;20451;-77
2022/11/08 09:23:04;;;;;;;12.52;7.68;;;;;;;;;;5051501;28;20029;-78
2022/11/08 09:25:30;;;;;;;13.63;8.18;;;;;;;;;;5051590;28;20033;-78
2022/11/08 09:27:56;;;;;;;12.55;7.25;;;;;;;;;;5054700;28;20040;-78
2022/11/08 09:30:22;;;;;;;11.55;8.05;;;;;;;;;;5057724;28;20479;-81
2022/11/08 09:32:52;;;;;;;13.15;8.10;;;;;;;;;;5058525;28;20079;-78
2022/11/08 09:35:20;;;;;;;9.20;6.95;;;;;;;;;;5057883;28;20021;-77
2022/11/08 09:37:54;;;;;;;13.40;7.45;;;;;;;;;;5052144;28;20509;-78
2022/11/08 09:40:30;;;;;;;14.43;7.55;;;;;;;;;;5054318;28;20032;-78
2022/11/08 09:43:06;;;;;;;13.60;7.25;;;;;;;;;;5058693;22;20045;-77
2022/11/08 09:48:52;;;;;;;11.35;6.63;;;;;;;;;;5053515;28;20125;-77
2022/11/08 09:51:23;;;;;;;12.50;7.28;;;;;;;;;;5051963;28;20068;-76
2022/11/08 09:54:03;;;;;;;17.02;7.55;;;;;;;;;;5054676;28;20029;-78
2022/11/08 09:56:35;;;;;;;10.80;6.30;;;;;;;;;;5037973;28;20021;-77
2022/11/08 09:59:13;;;;;;;9.00;6.10;;;;;;;;;;5053115;28;20067;-76
2022/11/08 10:01:42;;;;;;;12.48;5.93;;;;;;;;;;5053558;28;20021;-77
2022/11/08 10:04:14;;;;;;;11.32;6.47;;;;;;;;;;5052464;28;20021;-76
2022/11/08 10:06:49;;;;;;;12.57;6.18;;;;;;;;;;5054152;28;20028;-76
2022/11/08 10:09:21;;;;;;;9.68;6.13;;;;;;;;;;5053191;28;20079;-76
2022/11/08 10:12:06;;;;;;;11.32;6.30;;;;;;;;;;5052683;28;20064;-77
2022/11/08 10:14:41;;;;;;;9.45;5.63;;;;;;;;;;5036853;28;20033;-77
2022/11/08 10:17:28;;;;;;;9.38;6.22;;;;;;;;;;5044035;28;20021;-74
2022/11/08 10:20:07;;;;;;;9.73;5.85;;;;;;;;;;5053107;28;20017;-77
2022/11/08 10:28:59;;;;;;;13.52;5.93;;;;;;;;;;5033593;28;20060;-77
2022/11/08 10:34:43;;;;;;;11.57;5.32;;;;;;;;;;5033706;28;20606;-78
2022/11/08 10:37:13;;;;;;;10.82;5.28;;;;;;;;;;5015272;28;20026;-77
2022/11/08 10:39:48;;;;;;;9.98;5.32;;;;;;;;;;5033446;28;20032;-78
2022/11/08 10:42:36;;;;;;;14.23;4.78;;;;;;;;;;5033813;28;20025;-77
2022/11/08 10:45:05;;;;;;;7.10;4.10;;;;;;;;;;5015194;28;20407;-77
2022/11/08 10:47:34;;;;;;;6.15;4.50;;;;;;;;;;5031766;28;20075;-77
2022/11/08 10:50:26;;;;;;;9.68;4.93;;;;;;;;;;5033060;28;20034;-78
2022/11/08 10:53:02;;;;;;;6.65;3.35;;;;;;;;;;4995277;28;20376;-77
2022/11/08 10:55:45;;;;;;;4.45;3.30;;;;;;;;;;5026234;28;20034;-78
2022/11/08 10:58:30;;;;;;;5.03;2.97;;;;;;;;;;5032009;28;20026;-77
2022/11/08 11:04:33;;;;;;;5.35;2.92;;;;;;;;;;5029909;28;20385;-78
2022/11/08 11:07:03;;;;;;;6.43;2.72;;;;;;;;;;5032562;28;20415;-76
2022/11/08 11:09:29;;;;;;;2.67;1.08;;;;;;;;;;5033405;28;20029;-78
2022/11/08 11:11:56;;;;;;;2.05;1.23;;;;;;;;;;5034373;28;20025;-78
2022/11/08 11:14:29;;;;;;;4.88;1.52;;;;;;;;;;5051188;28;20044;-78
2022/11/08 11:17:06;;;;;;;5.43;1.27;;;;;;;;;;5052606;28;20021;-77
2022/11/08 11:19:33;;;;;;;2.78;1.02;;;;;;;;;;5052865;28;20028;-77
2022/11/08 11:22:08;;;;;;;3.80;1.42;;;;;;;;;;5034511;28;20033;-78
2022/11/08 11:24:35;;;;;;;5.25;1.92;;;;;;;;;;5016277;28;20391;-78
2022/11/08 11:27:03;;;;;;;1.35;0.80;;;;;;;;;;5034500;28;20109;-78
2022/11/08 11:29:30;;;;;;;2.78;1.00;;;;;;;;;;5034093;28;20164;-77
2022/11/08 11:31:57;;;;;;;6.20;3.90;;;;;;;;;;5015796;28;20032;-77
2022/11/08 11:34:32;;;;;;;2.17;1.45;;;;;;;;;;5033016;28;20029;-79
2022/11/08 11:36:58;;;;;;;1.63;1.10;;;;;;;;;;5015438;28;20018;-77
2022/11/08 11:39:30;;;;;;;3.70;1.08;;;;;;;;;;5033561;28;20029;-77
2022/11/08 11:42:23;;;;;;;2.70;1.30;;;;;;;;;;5014997;28;20033;-77
2022/11/08 11:44:55;;;;;;;5.70;1.08;;;;;;;;;;5009913;28;20041;-78
2022/11/08 11:47:28;;;;;;;3.63;1.98;;;;;;;;;;5031620;28;20030;-77
2022/11/08 11:49:55;;;;;;;3.10;1.67;;;;;;;;;;5032559;28;20022;-78
2022/11/08 11:52:21;;;;;;;3.22;1.73;;;;;;;;;;5015023;28;20025;-80
2022/11/08 11:54:48;;;;;;;2.17;1.42;;;;;;;;;;5032370;28;20021;-77
2022/11/08 11:57:20;;;;;;;2.72;1.40;;;;;;;;;;5031507;28;20022;-78
2022/11/08 12:00:05;;;;;;;2.85;1.23;;;;;;;;;;5031626;28;20456;-78
2022/11/08 12:02:50;;;;;;;2.60;1.45;;;;;;;;;;5014366;28;20090;-75
2022/11/08 12:05:31;;;;;;;3.25;1.25;;;;;;;;;;5014177;28;20025;-77
2022/11/08 12:08:06;;;;;;;3.67;1.80;;;;;;;;;;5030602;28;20029;-78
2022/11/08 12:10:50;;;;;;;2.03;1.42;;;;;;;;;;5031678;28;20029;-78
2022/11/08 12:13:35;;;;;;;3.05;1.35;;;;;;;;;;5022749;28;20065;-77
2022/11/08 12:16:24;;;;;;;2.70;1.45;;;;;;;;;;5034840;28;20053;-75
2022/11/08 12:18:53;;;;;;;4.30;1.60;;;;;;;;;;5050848;28;20501;-77
2022/11/08 12:21:38;;;;;;;2.60;1.05;;;;;;;;;;5051337;28;20021;-77
2022/11/08 12:24:13;;;;;;;3.90;1.40;;;;;;;;;;5051482;28;20040;-78
2022/11/08 12:26:45;;;;;;;2.35;1.50;;;;;;;;;;5053418;28;20035;-77
2022/11/08 12:29:24;;;;;;;1.85;1.30;;;;;;;;;;5059940;28;20407;-78
2022/11/08 12:32:23;;;;;;;4.25;1.85;;;;;;;;;;5059147;28;20025;-76
2022/11/08 12:34:49;;;;;;;4.57;1.77;;;;;;;;;;5016066;28;20048;-77
2022/11/08 12:37:32;;;;;;;3.00;1.33;;;;;;;;;;5050821;28;20041;-77
2022/11/08 12:40:12;;;;;;;5.45;1.27;;;;;;;;;;5050167;28;20049;-76
2022/11/08 12:42:44;;;;;;;1.67;1.10;;;;;;;;;;5050254;28;20021;-77
2022/11/08 12:45:20;;;;;;;1.85;1.30;;;;;;;;;;5049846;28;20107;-77
2022/11/08 12:47:49;;;;;;;7.28;1.60;;;;;;;;;;5049179;28;20052;-78
2022/11/08 12:50:15;;;;;;;1.83;1.30;;;;;;;;;;5050153;28;20110;-78
2022/11/08 12:52:41;;;;;;;2.78;1.20;;;;;;;;;;5050408;28;20036;-78
2022/11/08 12:55:11;;;;;;;2.15;1.35;;;;;;;;;;5050169;28;20029;-78
2022/11/08 12:57:40;;;;;;;7.28;1.95;;;;;;;;;;5049418;28;20025;-77
2022/11/08 13:00:08;;;;;;;3.75;1.70;;;;;;;;;;5049504;28;20042;-77
2022/11/08 13:02:39;;;;;;;1.70;1.08;;;;;;;;;;5050098;28;20055;-79
2022/11/08 13:05:08;;;;;;;3.42;1.33;;;;;;;;;;5050206;28;20402;-78
2022/11/08 13:07:38;;;;;;;4.40;1.67;;;;;;;;;;5043856;28;20400;-77
2022/11/08 13:10:33;;;;;;;4.32;1.98;;;;;;;;;;5032766;28;20071;-78
2022/11/08 13:13:18;;;;;;;4.30;2.17;;;;;;;;;;4979993;28;20464;-77
2022/11/08 13:16:03;;;;;;;4.88;1.73;;;;;;;;;;5050669;28;20021;-76
2022/11/08 13:18:33;;;;;;;3.70;1.25;;;;;;;;;;5048981;28;20029;-78
2022/11/08 13:20:59;;;;;;;2.30;1.33;;;;;;;;;;5031536;28;20568;-78
2022/11/08 13:23:27;;;;;;;2.38;1.25;;;;;;;;;;5052637;28;20037;-77
2022/11/08 13:25:53;;;;;;;5.22;2.08;;;;;;;;;;5053600;28;20021;-77
2022/11/08 13:28:34;;;;;;;2.85;1.70;;;;;;;;;;5058339;28;20087;-77
2022/11/08 13:31:03;;;;;;;2.35;1.42;;;;;;;;;;5055513;28;20451;-76
2022/11/08 13:33:30;;;;;;;2.15;1.25;;;;;;;;;;5060645;28;20029;-78
2022/11/08 13:36:03;;;;;;;3.38;1.33;;;;;;;;;;5069808;28;20024;-76
2022/11/08 13:38:41;;;;;;;5.85;1.88;;;;;;;;;;5068131;28;20032;-78
2022/11/08 13:41:18;;;;;;;3.55;1.35;;;;;;;;;;5067324;28;20029;-77
2022/11/08 13:43:45;;;;;;;3.05;1.40;;;;;;;;;;5065167;28;20056;-77
2022/11/08 13:46:24;;;;;;;3.08;1.58;;;;;;;;;;5056231;28;20403;-79
2022/11/08 13:49:06;;;;;;;3.95;1.27;;;;;;;;;;5052813;28;20072;-78
2022/11/08 13:51:35;;;;;;;4.95;1.38;;;;;;;;;;5053316;28;20025;-77
2022/11/08 13:54:03;;;;;;;3.47;1.40;;;;;;;;;;5054204;28;20028;-77
2022/11/08 13:56:43;;;;;;;3.25;1.50;;;;;;;;;;5054511;28;20100;-77
2022/11/08 13:59:28;;;;;;;1.35;1.00;;;;;;;;;;5051669;28;20021;-78
2022/11/08 14:01:54;;;;;;;2.90;1.52;;;;;;;;;;5054009;28;20048;-77
2022/11/08 14:04:39;;;;;;;3.33;1.80;;;;;;;;;;5054335;28;20028;-77
2022/11/08 14:07:05;;;;;;;3.55;1.67;;;;;;;;;;5052648;28;20040;-77
2022/11/08 14:09:50;;;;;;;2.45;1.35;;;;;;;;;;5054115;28;20086;-77
2022/11/08 14:12:28;;;;;;;3.33;1.20;;;;;;;;;;5054634;28;20067;-77
2022/11/08 14:15:06;;;;;;;6.15;1.88;;;;;;;;;;5054882;28;20075;-77
2022/11/08 14:17:53;;;;;;;4.65;1.17;;;;;;;;;;5051929;28;20021;-78
2022/11/08 14:20:22;;;;;;;2.63;1.30;;;;;;;;;;5053569;28;20108;-78
2022/11/08 14:22:48;;;;;;;3.03;1.55;;;;;;;;;;5053989;28;20036;-78
2022/11/08 14:25:18;;;;;;;3.42;1.60;;;;;;;;;;5032463;28;20021;-78
2022/11/08 14:27:46;;;;;;;4.43;1.63;;;;;;;;;;5033225;28;20026;-77
2022/11/08 14:30:20;;;;;;;5.40;1.95;;;;;;;;;;5015406;28;20454;-78
2022/11/08 14:32:46;;;;;;;4.43;1.88;;;;;;;;;;5015365;28;20387;-78
2022/11/08 14:35:24;;;;;;;5.63;1.80;;;;;;;;;;5033398;28;20096;-78
2022/11/08 14:37:50;;;;;;;2.53;1.83;;;;;;;;;;5032508;28;20177;-78
2022/11/08 14:40:29;;;;;;;3.47;1.15;;;;;;;;;;5032881;28;20484;-78
2022/11/08 14:42:55;;;;;;;4.53;2.88;;;;;;;;;;5015177;28;20025;-77
2022/11/08 14:45:22;;;;;;;3.08;1.70;;;;;;;;;;5015900;28;20036;-77
2022/11/08 14:47:52;;;;;;;6.28;1.95;;;;;;;;;;5016117;28;20501;-77
2022/11/08 14:50:20;;;;;;;5.28;2.30;;;;;;;;;;5035965;28;20035;-77
2022/11/08 14:52:46;;;;;;;10.65;5.20;;;;;;;;;;5034129;28;20025;-77
2022/11/08 14:55:23;;;;;;;4.55;2.78;;;;;;;;;;5034858;28;20032;-78
2022/11/08 14:57:50;;;;;;;9.75;3.70;;;;;;;;;;5033363;28;20043;-77
2022/11/08 15:00:20;;;;;;;6.65;3.40;;;;;;;;;;5015146;28;20037;-76
2022/11/08 15:02:48;;;;;;;5.82;2.75;;;;;;;;;;5032889;28;20468;-78
2022/11/08 15:05:35;;;;;;;7.53;2.60;;;;;;;;;;5032818;28;20053;-77
2022/11/08 15:08:02;;;;;;;6.45;3.55;;;;;;;;;;5032895;28;20226;-78
2022/11/08 15:10:28;;;;;;;7.55;4.18;;;;;;;;;;5040296;28;20572;-75
2022/11/08 15:12:55;;;;;;;11.38;4.72;;;;;;;;;;5034524;28;20045;-78
2022/11/08 15:15:25;;;;;;;9.43;4.78;;;;;;;;;;5032833;28;20479;-77
2022/11/08 15:18:11;;;;;;;8.10;4.80;;;;;;;;;;5049783;28;20498;-76
2022/11/08 15:20:37;;;;;;;13.82;5.63;;;;;;;;;;5050725;28;20052;-78
2022/11/08 15:23:21;;;;;;;11.18;5.65;;;;;;;;;;5032564;28;20029;-77
2022/11/08 15:25:54;;;;;;;10.27;5.82;;;;;;;;;;5040213;28;20052;-77
2022/11/08 15:28:21;;;;;;;8.25;5.63;;;;;;;;;;5012282;28;20021;-77
2022/11/08 15:30:51;;;;;;;12.27;6.43;;;;;;;;;;5014543;28;20029;-78
2022/11/08 15:33:25;;;;;;;12.45;6.00;;;;;;;;;;5032469;28;20392;-78
2022/11/08 15:35:51;;;;;;;11.82;6.65;;;;;;;;;;5033499;28;20036;-78
2022/11/08 15:38:28;;;;;;;14.27;6.45;;;;;;;;;;5032069;28;20033;-78
2022/11/08 15:40:57;;;;;;;13.88;6.55;;;;;;;;;;5032742;28;20032;-78
2022/11/08 15:43:34;;;;;;;12.35;6.28;;;;;;;;;;5014477;28;20368;-78
2022/11/08 15:46:01;;;;;;;15.50;6.15;;;;;;;;;;5033067;28;20062;-77
2022/11/08 15:48:27;;;;;;;9.15;5.57;;;;;;;;;;5031867;28;20118;-77
2022/11/08 15:50:55;;;;;;;15.02;6.60;;;;;;;;;;5015657;28;20104;-77
2022/11/08 15:53:22;;;;;;;12.15;6.50;;;;;;;;;;5032280;28;20091;-78
2022/11/08 15:56:04;;;;;;;13.52;6.60;;;;;;;;;;5045721;28;20013;-77
2022/11/08 15:58:35;;;;;;;15.90;6.20;;;;;;;;;;5050271;28;20048;-77
2022/11/08 16:01:02;;;;;;;14.70;6.82;;;;;;;;;;5032666;28;20107;-78
2022/11/08 16:03:28;;;;;;;14.90;6.70;;;;;;;;;;5036975;28;20095;-78
2022/11/08 16:05:55;;;;;;;11.88;7.30;;;;;;;;;;5024040;28;20553;-77
2022/11/08 16:08:21;;;;;;;16.20;7.13;;;;;;;;;;5039566;28;20068;-77
2022/11/08 16:10:49;;;;;;;15.63;7.38;;;;;;;;;;5051783;28;20059;-78
2022/11/08 16:13:24;;;;;;;12.95;7.00;;;;;;;;;;5052019;28;20025;-78
2022/11/08 16:15:53;;;;;;;10.50;6.38;;;;;;;;;;5048133;28;20458;-77
2022/11/08 16:18:19;;;;;;;12.88;7.22;;;;;;;;;;5044126;28;20029;-78
2022/11/08 16:20:45;;;;;;;11.00;6.80;;;;;;;;;;5049927;28;20021;-77
2022/11/08 16:23:12;;;;;;;14.40;6.57;;;;;;;;;;5051598;28;20485;-77
2022/11/08 16:25:39;;;;;;;12.55;5.95;;;;;;;;;;5039676;28;20025;-79
2022/11/08 16:28:06;;;;;;;12.00;6.60;;;;;;;;;;5048884;28;20017;-78
2022/11/08 16:30:33;;;;;;;8.77;6.28;;;;;;;;;;5049208;28;20020;-78
2022/11/08 16:32:59;;;;;;;10.60;5.45;;;;;;;;;;5049190;28;20025;-77
2022/11/08 16:35:25;;;;;;;11.85;6.57;;;;;;;;;;5049354;28;20537;-78
2022/11/08 16:37:52;;;;;;;12.05;7.03;;;;;;;;;;5031255;28;20032;-78
2022/11/08 16:40:19;;;;;;;12.88;7.45;;;;;;;;;;5047282;28;20535;-77
2022/11/08 16:42:46;;;;;;;11.40;6.72;;;;;;;;;;5050625;28;20091;-79
2022/11/08 16:45:13;;;;;;;16.42;7.30;;;;;;;;;;5051166;28;20029;-77
2022/11/08 16:47:43;;;;;;;12.35;7.03;;;;;;;;;;5050230;28;20027;-77
2022/11/08 16:50:17;;;;;;;13.80;7.32;;;;;;;;;;5051874;28;20021;-78
2022/11/08 16:52:43;;;;;;;19.48;10.52;;;;;;;;;;5033341;28;20024;-77
2022/11/08 16:55:13;;;;;;;9.05;5.97;;;;;;;;;;5052398;28;20064;-78
2022/11/08 16:57:42;;;;;;;13.60;6.68;;;;;;;;;;5045379;28;20024;-77
2022/11/08 17:00:19;;;;;;;11.20;6.03;;;;;;;;;;5060841;28;20041;-83
2022/11/08 17:10:29;;;;;;;14.18;6.70;;;;;;;;;;5040178;28;20503;-81
2022/11/08 17:13:05;;;;;;;16.05;7.38;;;;;;;;;;5065127;28;20041;-81
2022/11/08 17:18:56;;;;;;;12.13;7.00;;;;;;;;;;5045620;28;20043;-84
2022/11/08 17:24:44;;;;;;;11.90;5.82;;;;;;;;;;5551007;22;20060;-82
2022/11/08 17:30:20;;;;;;;18.65;6.95;;;;;;;;;;5026172;28;20505;-78
2022/11/08 17:32:57;;;;;;;13.07;6.38;;;;;;;;;;5037001;28;20080;-81
2022/11/08 17:35:48;;;;;;;13.05;6.68;;;;;;;;;;5018167;28;20018;-81
2022/11/08 17:51:36;;;;;;;;;;;;;;;;;;;;;
2022/11/08 18:01:20;;;;;;;;;;;;;;;;;;;;;
2022/11/08 18:31:12;;;;;;;;;;;;;;;;;;;;;
2022/11/08 18:37:26;;;;;;;13.45;8.20;;;;;;;;;;5013821;28;20031;-79
2022/11/08 18:40:08;;;;;;;;;;;;;;;;;;;;;
2022/11/08 18:42:39;;;;;;;10.70;7.13;;;;;;;;;;5023681;28;20077;-82
2022/11/08 18:45:07;;;;;;;11.40;7.25;;;;;;;;;;5050144;28;20037;-81
2022/11/08 18:48:01;;;;;;;14.55;8.40;;;;;;;;;;5032209;28;20029;-79
2022/11/08 18:50:30;;;;;;;12.95;7.63;;;;;;;;;;5003909;28;20039;-77
2022/11/08 18:52:56;;;;;;;12.45;7.20;;;;;;;;;;5024746;28;20021;-77
2022/11/08 18:55:22;;;;;;;12.07;7.45;;;;;;;;;;5018162;28;20036;-77
2022/11/08 18:57:48;;;;;;;19.95;8.73;;;;;;;;;;5026374;28;20022;-76
2022/11/08 19:00:16;;;;;;;13.30;8.68;;;;;;;;;;5024322;28;20429;-75
2022/11/08 19:03:03;;;;;;;13.55;8.10;;;;;;;;;;5017967;28;20415;-74
2022/11/08 19:05:46;;;;;;;13.80;8.27;;;;;;;;;;5013458;28;20030;-77
2022/11/08 19:08:41;;;;;;;15.52;9.13;;;;;;;;;;5021548;28;20028;-77
2022/11/08 19:11:27;;;;;;;13.32;8.35;;;;;;;;;;5001412;28;20033;-74
2022/11/08 19:14:00;;;;;;;12.73;7.90;;;;;;;;;;5017377;28;20025;-75
2022/11/08 19:16:32;;;;;;;12.50;8.07;;;;;;;;;;5013902;28;20019;-76
2022/11/08 20:07:51;;;;;;;15.52;7.95;;;;;;;;;;5103747;22;20110;-80
2022/11/08 20:11:08;;;;;;;13.82;8.32;;;;;;;;;;4967160;28;20023;-79
2022/11/08 20:55:40;;;;;;;11.98;6.60;;;;;;;;;;1301658;23;20294;-80
2022/11/08 21:02:27;;;;;;;9.45;6.07;;;;;;;;;;4987157;28;20037;-80
2022/11/08 21:13:24;;;;;;;11.77;6.38;;;;;;;;;;5398069;23;20099;-79
2022/11/08 21:52:41;;;;;;;;;;;;;;;;;;;;;
2022/11/08 22:14:45;;;;;;;11.68;5.75;;;;;;;;;;5512946;23;20020;-79
2022/11/08 22:22:20;;;;;;;13.77;5.88;;;;;;;;;;5002422;28;20051;-78
2022/11/08 22:24:46;;;;;;;10.90;6.75;;;;;;;;;;4990434;28;20037;-78
2022/11/08 22:27:15;;;;;;;13.95;7.30;;;;;;;;;;4987575;28;20038;-77
2022/11/08 22:29:41;;;;;;;9.55;7.43;;;;;;;;;;4987086;28;20022;-77
2022/11/08 22:32:10;;;;;;;13.60;6.90;;;;;;;;;;4978788;28;20026;-77
2022/11/08 22:38:23;;;;;;;;;;;;;;;;;;;;;
2022/11/08 22:45:07;;;;;;;;;;;;;;;;;;;;;
2022/11/08 22:54:12;;;;;;;15.23;10.13;;;;;;;;;;4962996;23;20042;-77
2022/11/08 23:00:28;;;;;;;18.02;11.88;;;;;;;;;;4992966;28;20045;-77
2022/11/08 23:32:57;;;;;;;22.07;14.33;;;;;;;;;;5013367;28;20089;-78
2022/11/08 23:35:23;;;;;;;22.08;14.77;;;;;;;;;;5030356;28;20109;-79
2022/11/08 23:37:49;;;;;;;22.13;14.65;;;;;;;;;;5023801;28;20033;-79
2022/11/08 23:45:49;;;;;;;26.45;15.00;;;;;;;;;;5032173;28;20064;-76
2022/11/08 23:48:15;;;;;;;22.58;14.55;;;;;;;;;;5022187;28;20052;-76
2022/11/08 23:50:51;;;;;;;21.77;14.15;;;;;;;;;;5012351;28;20022;-77
2022/11/08 23:53:18;;;;;;;22.77;16.42;;;;;;;;;;5014172;28;20030;-77
2022/11/08 23:55:44;;;;;;;26.60;16.52;;;;;;;;;;5031977;28;20025;-78
2022/11/08 23:58:14;;;;;;;21.98;15.43;;;;;;;;;;5021570;28;20057;-78
